Latest Weather Observations for PORTABLE QFRC SER

IDQ60801

Issued at 12:02 am EST Wednesday 29 January 2020 (issued every 10 minutes, with the page automatically refreshed every 10 minutes)

About weather observations | Map of weather stations | Latest weather observations for QLD | Other Formats
Station Details ID: 250049 Name: PORTABLE QFRC Lat: -27.10 Lon: 152.46 Height: 139.0 m

Portable automatic weather stations (PAWS) are operated by other organisations, such as Fire and Emergency Services, and are included here by agreement. Portable stations may be deployed to a location for a short period and their location may be subject to change without notice. Wind observations from these stations are provided from heights of either three (3) or ten (10) metres above ground level (AGL).

Data from the previous 72 hours. | See also: Recent months for locations in Queensland
Date/Time
EST
Temp
°C
App
Temp
°C
Dew
Point
°C
Rel
Hum
%
Delta-T
°C
Wind Press
QNH
hPa
Press
MSL
hPa
Rain since
9am
mm
Dir  Spd
km/h
Gust
km/h
Spd
kts
Gust
kts
28/11:50pm 23.0 26.1 21.1 89 1.3 WSW 6 6 3 3 - - 0.0
28/11:40pm 23.1 27.0 21.1 88 1.3 WSW 2 6 1 3 - - 0.0
28/11:30pm 23.2 27.1 21.1 88 1.4 S 2 4 1 2 - - 0.0
28/11:20pm 23.3 27.1 21.0 87 1.5 E 2 6 1 3 - - 0.0
28/11:10pm 23.7 26.8 21.0 85 1.8 E 6 6 3 3 - - 0.0
28/11:00pm 24.0 27.4 20.9 83 2.0 ENE 4 4 2 2 - - 0.0
28/10:50pm 24.1 27.5 20.9 82 2.1 NE 4 6 2 3 - - 0.0
28/10:40pm 24.2 27.2 20.8 81 2.2 ENE 6 6 3 3 - - 0.0
28/10:30pm 24.3 27.3 20.8 81 2.3 ENE 6 6 3 3 - - 0.0
28/10:20pm 24.2 27.5 20.7 81 2.3 ENE 4 6 2 3 - - 0.0
28/10:10pm 24.1 27.0 20.7 81 2.2 ENE 6 6 3 3 - - 0.0
28/10:00pm 24.0 27.0 20.9 83 2.0 NNE 6 6 3 3 - - 0.0
28/09:50pm 24.0 27.5 21.1 84 1.9 NW 4 6 2 3 - - 0.0
28/09:40pm 24.2 27.6 20.9 82 2.2 NNW 4 6 2 3 - - 0.0
28/09:30pm 24.4 27.3 20.7 80 2.4 NNW 6 6 3 3 - - 0.0
28/09:20pm 24.4 27.2 20.9 81 2.3 NNW 7 7 4 4 - - 0.0
28/09:10pm 24.6 27.4 20.9 80 2.4 N 7 9 4 5 - - 0.0
28/09:00pm 24.6 26.9 20.7 79 2.6 NNW 9 11 5 6 - - 0.0
28/08:50pm 24.6 27.4 20.9 80 2.4 NNW 7 9 4 5 - - 0.0
28/08:40pm 24.9 27.4 21.0 79 2.6 N 9 9 5 5 - - 0.0
28/08:30pm 25.0 27.8 20.9 78 2.7 N 7 9 4 5 - - 0.0
28/08:20pm 25.2 28.0 20.9 77 2.8 N 7 9 4 5 - - 0.0
28/08:10pm 25.4 27.7 20.7 75 3.1 N 9 11 5 6 - - 0.0
28/08:00pm 25.5 28.2 20.7 75 3.2 N 7 9 4 5 - - 0.0
28/07:50pm 25.9 28.6 20.7 73 3.4 NNE 7 9 4 5 - - 0.0
28/07:40pm 26.0 28.6 20.1 70 3.9 NNE 6 6 3 3 - - 0.0
28/07:30pm 26.1 28.6 19.9 68 4.0 NE 6 9 3 5 - - 0.0
28/07:20pm 26.2 28.4 19.7 67 4.2 N 7 15 4 8 - - 0.0
28/07:10pm 26.3 27.3 19.5 66 4.4 NNE 13 15 7 8 - - 0.0
28/07:00pm 26.4 27.9 19.7 66 4.4 NNE 11 15 6 8 - - 0.0
28/06:50pm 26.5 27.5 20.2 68 4.1 NE 15 20 8 11 - - 0.0
28/06:40pm 26.7 27.4 20.5 69 4.1 NE 17 19 9 10 - - 0.0
28/06:30pm 26.9 27.8 20.8 69 4.0 NE 17 22 9 12 - - 0.0
28/06:20pm 27.0 27.3 20.7 68 4.2 NE 20 24 11 13 - - 0.0
28/06:10pm 27.4 27.9 20.8 67 4.4 ENE 19 26 10 14 - - 0.0
28/06:00pm 27.5 28.1 21.3 69 4.1 NE 20 24 11 13 - - 0.0
28/05:50pm 27.8 28.8 21.7 69 4.1 NE 19 24 10 13 - - 0.0
28/05:40pm 28.1 28.9 21.4 67 4.5 NE 19 22 10 12 - - 0.0
28/05:30pm 28.6 29.7 21.3 64 4.9 ENE 17 20 9 11 - - 0.0
28/05:20pm 28.7 29.1 20.7 62 5.3 NE 19 20 10 11 - - 0.0
28/05:10pm 28.9 28.9 21.0 62 5.3 ENE 22 24 12 13 - - 0.0
28/05:00pm 29.1 29.0 20.8 61 5.5 ENE 22 24 12 13 - - 0.0
28/04:50pm 29.2 29.8 21.1 61 5.4 NE 19 22 10 12 - - 0.0
28/04:40pm 29.3 29.3 20.2 58 6.0 ENE 20 22 11 12 - - 0.0
28/04:30pm 29.6 29.6 20.2 57 6.2 ENE 20 24 11 13 - - 0.0
28/04:20pm 29.8 30.3 20.8 58 6.0 NE 19 20 10 11 - - 0.0
28/04:10pm 29.7 30.0 20.8 58 5.9 NE 20 22 11 12 - - 0.0
28/04:00pm 29.8 30.0 20.1 56 6.4 ENE 19 20 10 11 - - 0.0
28/03:50pm 30.2 30.4 20.6 56 6.4 ENE 20 22 11 12 - - 0.0
28/03:40pm 30.5 30.6 20.0 53 7.0 ENE 19 20 10 11 - - 0.0
28/03:30pm 31.0 31.3 20.3 53 7.1 NE 19 20 10 11 - - 0.0
28/03:20pm 31.4 31.6 20.2 51 7.5 NE 19 22 10 12 - - 0.0
28/03:10pm 31.2 31.6 20.6 53 7.1 NE 19 20 10 11 - - 0.0
28/03:00pm 30.6 30.9 20.4 54 6.8 ENE 19 22 10 12 - - 0.0
28/02:50pm 31.1 31.8 20.4 53 7.1 ENE 17 19 9 10 - - 0.0
28/02:40pm 30.1 31.1 21.1 58 6.0 ENE 17 19 9 10 - - 0.0
28/02:30pm 30.0 30.3 20.5 56 6.3 ENE 19 20 10 11 - - 0.0
28/02:20pm 30.6 31.5 20.8 56 6.6 NE 17 20 9 11 - - 0.0
28/02:10pm 31.0 31.1 20.0 52 7.3 NE 19 22 10 12 - - 0.0
28/02:00pm 31.0 31.2 20.2 52 7.2 NE 19 24 10 13 - - 0.0
28/01:50pm 30.7 31.1 20.7 55 6.7 ENE 19 22 10 12 - - 0.0
28/01:40pm 30.0 30.0 20.2 55 6.5 ENE 20 22 11 12 - - 0.0
28/01:30pm 30.5 30.9 20.7 55 6.5 ENE 19 22 10 12 - - 0.0
28/01:20pm 30.6 31.7 22.3 61 5.7 NE 20 26 11 14 - - 0.0
28/01:10pm 30.4 31.6 21.5 59 6.0 NE 17 20 9 11 - - 0.0
28/01:00pm 30.0 31.9 20.6 57 6.3 NNE 11 17 6 9 - - 0.0
28/12:50pm 30.1 32.8 20.3 55 6.5 E 6 11 3 6 - - 0.0
28/12:40pm 30.0 32.1 20.9 58 6.1 SE 11 17 6 9 - - 0.0
28/12:30pm 30.8 33.3 20.3 53 7.0 SE 7 13 4 7 - - 0.0
28/12:20pm 30.4 32.5 20.9 57 6.4 SSE 11 15 6 8 - - 0.0
28/12:10pm 30.1 32.0 20.6 56 6.3 SE 11 13 6 7 - - 0.0
28/12:00pm 30.2 32.1 21.4 59 5.9 SE 13 17 7 9 - - 0.0
28/11:50am 30.1 30.7 20.3 55 6.5 SE 17 19 9 10 - - 0.0
28/11:40am 29.4 30.0 21.1 61 5.6 SE 19 24 10 13 - - 0.0
28/11:30am 29.1 30.6 20.6 60 5.7 SE 13 15 7 8 - - 0.0
28/11:20am 28.8 30.3 20.5 61 5.5 SE 13 15 7 8 - - 0.0
28/11:10am 29.0 30.4 20.3 59 5.8 SSE 13 20 7 11 - - 0.0
28/11:00am 28.9 30.5 20.7 61 5.5 SE 13 19 7 10 - - 0.0
28/10:50am 29.2 31.5 20.7 60 5.7 S 9 11 5 6 - - 0.0
28/10:40am 29.4 31.8 20.8 60 5.7 S 9 13 5 7 - - 0.0
28/10:30am 29.7 32.5 20.9 59 5.9 E 7 9 4 5 - - 0.0
28/10:20am 29.7 31.7 19.9 55 6.5 E 9 13 5 7 - - 0.0
28/10:10am 29.6 32.4 21.5 61 5.5 E 9 13 5 7 - - 0.0
28/10:00am 29.3 31.5 20.4 58 5.9 ESE 9 13 5 7 - - 0.0
28/09:50am 28.9 31.4 20.2 59 5.7 E 7 11 4 6 - - 0.0
28/09:40am 28.5 31.2 20.6 62 5.2 E 7 13 4 7 - - 0.0
28/09:30am 27.9 30.3 20.0 62 5.2 ENE 7 9 4 5 - - 0.0
28/09:20am 27.6 30.0 20.0 63 5.0 E 7 11 4 6 - - 0.0
28/09:10am 27.4 28.9 19.8 63 5.0 E 11 13 6 7 - - 0.0
28/09:00am 27.3 29.9 20.5 66 4.5 E 7 13 4 7 - - 0.2
28/08:50am 26.7 28.8 20.1 67 4.3 SE 9 9 5 5 - - 0.2
28/08:40am 26.0 29.5 21.9 78 2.8 SSE 6 9 3 5 - - 0.2
28/08:30am 25.7 28.6 21.8 79 2.6 S 9 11 5 6 - - 0.2
28/08:20am 25.2 27.9 22.1 83 2.1 S 11 13 6 7 - - 0.2
28/08:10am 24.8 27.9 22.1 85 1.8 S 9 11 5 6 - - 0.2
28/08:00am 24.0 27.0 21.9 88 1.4 S 9 9 5 5 - - 0.2
28/07:50am 23.5 26.5 22.0 91 1.0 S 9 11 5 6 - - 0.2
28/07:40am 23.4 26.4 22.0 92 0.9 S 9 11 5 6 - - 0.2
28/07:30am 23.1 26.4 21.9 93 0.8 S 7 9 4 5 - - 0.2
28/07:20am 23.0 26.3 21.8 93 0.8 SSE 7 7 4 4 - - 0.0
28/07:10am 23.1 26.4 21.8 92 0.9 ESE 7 7 4 4 - - 0.0
28/07:00am 23.0 26.2 21.6 92 0.9 SE 7 9 4 5 - - 0.0
28/06:50am 23.1 25.9 21.6 91 1.0 SSE 9 9 5 5 - - 0.0
28/06:40am 23.0 25.7 21.4 91 1.1 SSE 9 11 5 6 - - 0.0
28/06:30am 22.8 25.5 21.4 92 0.9 SSE 9 11 5 6 - - 0.0
28/06:20am 22.5 25.1 21.2 92 0.9 S 9 11 5 6 - - 0.0
28/06:10am 22.3 24.8 21.0 92 0.9 S 9 9 5 5 - - 0.0
28/06:00am 22.3 24.8 21.0 92 0.9 S 9 9 5 5 - - 0.0
28/05:50am 22.2 24.7 21.0 93 0.8 S 9 11 5 6 - - 0.0
28/05:40am 22.1 24.6 21.0 93 0.7 SSE 9 11 5 6 - - 0.0
28/05:30am 22.1 24.6 21.1 94 0.7 S 9 11 5 6 - - 0.0
28/05:20am 22.1 25.0 21.0 93 0.7 S 7 9 4 5 - - 0.0
28/05:10am 22.1 25.0 21.0 93 0.7 S 7 9 4 5 - - 0.0
28/05:00am 22.2 25.1 21.0 93 0.8 S 7 7 4 4 - - 0.0
28/04:50am 22.2 25.1 21.1 93 0.7 SSE 7 9 4 5 - - 0.0
28/04:40am 22.2 24.8 21.2 94 0.7 SSE 9 11 5 6 - - 0.0
28/04:30am 22.1 24.6 21.1 94 0.7 SSE 9 9 5 5 - - 0.0
28/04:20am 22.1 24.2 21.0 93 0.7 SSE 11 13 6 7 - - 0.0
28/04:10am 21.8 24.6 20.5 92 0.8 SSE 6 6 3 3 - - 0.0
28/04:00am 21.9 25.1 20.5 92 0.9 SSE 4 6 2 3 - - 0.0
28/03:50am 21.9 25.4 20.4 91 1.0 S 2 4 1 2 - - 0.0
28/03:40am 22.0 25.5 20.4 91 1.0 NE 2 4 1 2 - - 0.0
28/03:30am 22.1 25.6 20.3 89 1.2 SSE 2 4 1 2 - - 0.0
28/03:20am 22.1 25.2 20.2 89 1.2 S 4 6 2 3 - - 0.0
28/03:10am 22.2 25.3 20.2 88 1.3 S 4 6 2 3 - - 0.0
28/03:00am 22.3 25.4 20.3 88 1.3 SSW 4 6 2 3 - - 0.0
28/02:50am 22.5 26.1 20.6 89 1.2 SW 2 4 1 2 - - 0.0
28/02:40am 22.6 25.8 20.5 88 1.4 S 4 6 2 3 - - 0.0
28/02:30am 22.7 26.3 20.6 88 1.4 ESE 2 6 1 3 - - 0.0
28/02:20am 22.8 26.0 20.6 87 1.4 SSE 4 4 2 2 - - 0.0
28/02:10am 22.8 26.2 20.2 85 1.7 S 2 4 1 2 - - 0.0
28/02:00am 22.8 25.9 20.2 85 1.7 S 4 6 2 3 - - 0.0
28/01:50am 22.7 25.3 20.1 85 1.7 S 6 7 3 4 - - 0.0
28/01:40am 22.6 25.3 20.2 86 1.6 SSW 6 6 3 3 - - 0.0
28/01:30am 22.6 25.3 20.2 86 1.6 SSW 6 6 3 3 - - 0.0
28/01:20am 22.8 25.5 20.2 85 1.7 SSW 6 7 3 4 - - 0.0
28/01:10am 22.8 26.2 20.1 85 1.7 SSW 2 6 1 3 - - 0.0
28/01:00am 22.9 26.0 20.3 85 1.7 S 4 6 2 3 - - 0.0
28/12:50am 23.0 26.2 20.4 85 1.7 S 4 6 2 3 - - 0.0
28/12:40am 23.2 26.3 20.3 84 1.9 SSE 4 6 2 3 - - 0.0
28/12:30am 23.4 27.0 20.6 84 1.8 SSE 2 4 1 2 - - 0.0
28/12:20am 23.4 26.6 20.4 83 2.0 S 4 6 2 3 - - 0.0
28/12:10am 23.4 26.1 20.3 83 2.0 S 6 7 3 4 - - 0.0
28/12:00am 23.3 26.7 20.1 82 2.1 SE 2 6 1 3 - - 0.0
 
Date/Time
EST
Temp
°C
App
Temp
°C
Dew
Point
°C
Rel
Hum
%
Delta-T
°C
Wind Press
QNH
hPa
Press
MSL
hPa
Rain since
9am
mm
Dir  Spd
km/h
Gust
km/h
Spd
kts
Gust
kts
27/11:50pm 23.2 26.6 20.2 83 1.9 SSW 2 4 1 2 - - 0.0
27/11:40pm 23.1 26.5 20.1 83 1.9 S 2 4 1 2 - - 0.0
27/11:30pm 23.0 26.4 20.1 84 1.9 E 2 4 1 2 - - 0.0
27/11:20pm 22.9 25.8 19.9 83 1.9 S 4 4 2 2 - - 0.0
27/11:10pm 22.8 25.7 19.9 84 1.9 SW 4 6 2 3 - - 0.0
27/11:00pm 23.1 25.3 19.6 80 2.3 SSW 7 9 4 5 - - 0.0
27/10:50pm 23.3 25.6 19.5 79 2.4 SSE 6 7 3 4 - - 0.0
27/10:40pm 23.8 26.1 19.5 77 2.8 S 6 9 3 5 - - 0.0
27/10:30pm 24.3 26.5 19.2 73 3.3 ESE 6 9 3 5 - - 0.0
27/10:20pm 24.2 26.5 19.4 74 3.1 ESE 6 9 3 5 - - 0.0
27/10:00pm 24.3 26.5 19.1 73 3.3 E 6 9 3 5 - - 0.0
27/09:50pm 24.2 26.7 19.1 73 3.3 E 4 6 2 3 - - 0.0
27/09:40pm 24.4 27.0 19.3 73 3.3 ESE 4 6 2 3 - - 0.0
27/09:30pm 24.4 26.6 19.3 73 3.3 SSE 6 7 3 4 - - 0.0
27/09:20pm 24.7 26.8 19.0 70 3.7 ENE 6 7 3 4 - - 0.0
27/09:10pm 24.7 26.6 19.0 70 3.7 NNE 7 9 4 5 - - 0.0
27/09:00pm 24.7 26.6 18.9 70 3.7 NE 7 11 4 6 - - 0.0
27/08:50pm 24.9 27.1 19.3 71 3.6 NE 6 9 3 5 - - 0.0
27/08:40pm 25.0 27.1 18.9 69 3.9 E 6 7 3 4 - - 0.0
27/08:30pm 25.0 25.3 18.8 68 4.0 NNE 15 20 8 11 - - 0.0
27/08:20pm 24.9 26.3 18.7 68 4.0 NE 9 15 5 8 - - 0.0
27/08:10pm 25.0 27.0 19.2 70 3.7 NNW 7 13 4 7 - - 0.0
27/08:00pm 25.0 27.1 18.9 69 3.9 N 6 11 3 6 - - 0.0
27/07:50pm 25.2 27.6 18.8 67 4.1 NNE 4 7 2 4 - - 0.0
27/07:40pm 25.2 27.1 18.6 67 4.2 SE 6 7 3 4 - - 0.0
27/07:30pm 25.3 27.3 18.8 67 4.2 NNE 6 7 3 4 - - 0.0
27/07:20pm 25.4 27.5 19.0 67 4.1 NE 6 13 3 7 - - 0.0
27/07:10pm 25.6 28.1 19.0 67 4.2 E 4 4 2 2 - - 0.0
27/07:00pm 25.7 27.6 18.9 66 4.4 ENE 7 11 4 6 - - 0.0
27/06:50pm 25.8 27.7 19.0 66 4.4 ENE 7 11 4 6 - - 0.0
27/06:40pm 25.9 28.4 19.0 65 4.4 ENE 4 6 2 3 - - 0.0
27/06:30pm 26.2 28.3 19.4 66 4.4 ENE 7 9 4 5 - - 0.0
27/06:20pm 26.4 28.4 18.8 63 4.9 NNE 6 11 3 6 - - 0.0
27/06:10pm 26.6 28.1 18.9 62 5.0 NNE 9 13 5 7 - - 0.0
27/06:00pm 26.8 28.6 18.8 61 5.1 NE 7 11 4 6 - - 0.0
27/05:50pm 26.9 28.4 18.8 61 5.2 NE 9 13 5 7 - - 0.0
27/05:40pm 27.0 28.1 18.8 60 5.3 ENE 11 13 6 7 - - 0.0
27/05:30pm 27.2 28.3 18.9 60 5.4 ENE 11 17 6 9 - - 0.0
27/05:20pm 27.4 28.3 19.2 61 5.3 ENE 13 15 7 8 - - 0.0
27/05:10pm 27.7 28.0 18.8 58 5.7 ENE 15 19 8 10 - - 0.0
27/05:00pm 27.9 28.6 18.9 58 5.8 ENE 13 17 7 9 - - 0.0
27/04:50pm 28.0 28.3 18.8 57 5.9 E 15 19 8 10 - - 0.0
27/04:40pm 28.1 27.9 18.4 55 6.2 ENE 17 20 9 11 - - 0.0
27/04:30pm 28.4 28.2 18.4 54 6.4 ENE 17 19 9 10 - - 0.0
27/04:20pm 28.6 28.7 18.3 53 6.6 ENE 15 19 8 10 - - 0.0
27/04:00pm 29.0 28.8 18.4 52 6.8 ENE 17 20 9 11 - - 0.0
27/03:50pm 29.2 28.6 18.4 52 7.0 NE 19 20 10 11 - - 0.0
27/03:40pm 29.5 29.0 17.7 49 7.5 NE 17 20 9 11 - - 0.0
27/03:30pm 29.8 29.0 18.0 49 7.6 ENE 19 20 10 11 - - 0.0
27/03:20pm 29.7 29.6 18.7 51 7.1 ENE 17 20 9 11 - - 0.0
27/03:10pm 29.8 29.8 18.1 49 7.5 ENE 15 19 8 10 - - 0.0
27/03:00pm 29.7 29.4 18.2 50 7.4 NE 17 20 9 11 - - 0.0
27/02:50pm 29.9 29.6 17.3 46 8.0 NE 15 19 8 10 - - 0.0
27/02:40pm 30.2 29.2 16.6 44 8.6 NE 17 20 9 11 - - 0.0
27/02:30pm 31.0 29.9 16.3 41 9.2 NE 17 20 9 11 - - 0.0
27/02:20pm 31.0 31.1 17.5 44 8.6 ENE 13 17 7 9 - - 0.0
27/02:10pm 30.7 30.1 16.7 43 8.8 NE 15 22 8 12 - - 0.0
27/02:00pm 30.9 29.7 16.1 41 9.3 NE 17 20 9 11 - - 0.0
27/01:50pm 31.2 30.4 16.2 40 9.4 NE 15 19 8 10 - - 0.0
27/01:40pm 31.4 31.4 17.1 42 9.1 NE 13 19 7 10 - - 0.0
27/01:30pm 30.8 30.3 15.9 40 9.3 NE 13 17 7 9 - - 0.0
27/01:20pm 31.0 30.0 16.5 41 9.1 NNE 17 22 9 12 - - 0.0
27/01:10pm 32.0 32.5 16.5 39 9.8 ENE 9 11 5 6 - - 0.0
27/01:00pm 31.6 32.8 16.8 41 9.4 E 6 11 3 6 - - 0.0
27/12:50pm 30.9 32.0 17.9 45 8.4 E 9 13 5 7 - - 0.0
27/12:40pm 31.5 32.5 17.7 43 8.9 E 9 13 5 7 - - 0.0
27/12:30pm 31.3 32.3 16.9 42 9.1 E 7 13 4 7 - - 0.0
27/12:20pm 30.6 32.2 17.9 46 8.2 S 6 7 3 4 - - 0.0
27/12:10pm 29.8 31.5 18.5 50 7.3 S 7 11 4 6 - - 0.0
27/12:00pm 30.2 32.1 18.5 49 7.6 NW 6 7 3 4 - - 0.0
27/11:50am 30.1 32.2 18.0 48 7.8 SE 4 7 2 4 - - 0.0
27/11:40am 29.7 31.8 18.0 49 7.5 ESE 4 7 2 4 - - 0.0
27/11:30am 30.0 32.4 18.7 50 7.3 N 4 6 2 3 - - 0.0
27/11:20am 29.5 31.9 18.9 53 6.9 WNW 4 6 2 3 - - 0.0
27/11:10am 28.9 31.2 18.6 53 6.7 WSW 4 7 2 4 - - 0.0
27/11:00am 29.2 31.3 18.9 53 6.7 SSW 6 7 3 4 - - 0.0
27/10:50am 29.3 31.8 19.8 56 6.2 S 6 7 3 4 - - 0.0
27/10:40am 29.2 31.4 19.2 54 6.5 SSE 6 7 3 4 - - 0.0
27/10:30am 29.1 31.7 19.2 55 6.5 NNE 4 7 2 4 - - 0.0
27/10:20am 28.9 31.5 20.0 58 5.9 NNE 6 7 3 4 - - 0.0
27/10:10am 28.3 31.6 20.7 63 5.0 ESE 4 6 2 3 - - 0.0
27/10:00am 27.6 30.5 19.9 63 5.0 ESE 4 6 2 3 - - 0.0
27/09:50am 27.4 30.0 20.1 64 4.8 ESE 6 7 3 4 - - 0.0
27/09:40am 26.5 29.0 19.8 66 4.4 SSE 6 7 3 4 - - 0.0
27/09:30am 25.9 28.6 20.6 72 3.5 SE 7 9 4 5 - - 0.0
27/09:20am 26.1 28.9 20.9 73 3.4 SE 7 11 4 6 - - 0.0
27/09:10am 26.1 29.0 20.7 72 3.6 S 6 7 3 4 - - 0.0
27/09:00am 25.8 28.5 20.2 71 3.7 S 6 7 3 4 - - 0.0
27/08:50am 25.2 27.9 20.6 75 3.0 SSW 7 7 4 4 - - 0.0
27/08:40am 24.9 27.5 20.4 76 2.9 S 7 9 4 5 - - 0.0
27/08:30am 24.5 26.8 20.7 79 2.5 S 9 9 5 5 - - 0.0
27/08:20am 24.3 26.8 21.1 82 2.1 S 9 9 5 5 - - 0.0
27/08:10am 24.1 26.6 21.1 83 2.0 SSE 9 9 5 5 - - 0.0
27/08:00am 23.8 26.5 21.3 86 1.7 SSE 9 11 5 6 - - 0.0
27/07:50am 23.5 26.3 21.6 89 1.3 SE 9 11 5 6 - - 0.0
27/07:40am 23.4 26.3 21.7 90 1.1 SSE 9 11 5 6 - - 0.0
27/07:30am 23.4 26.6 21.6 90 1.2 S 7 9 4 5 - - 0.0
27/07:20am 23.4 26.6 21.3 88 1.4 S 6 7 3 4 - - 0.0
27/07:10am 23.3 27.4 21.6 90 1.1 SW 2 4 1 2 - - 0.0
27/07:00am 23.0 27.1 21.5 91 1.0 W 2 2 1 1 - - 0.0
27/06:50am 22.8 27.3 21.5 92 0.9 CALM 0 0 0 0 - - 0.0
27/06:40am 22.7 26.7 21.4 92 0.9 N 2 4 1 2 - - 0.0
27/06:30am 22.6 27.0 21.4 93 0.8 CALM 0 0 0 0 - - 0.0
27/06:20am 22.6 26.6 21.4 93 0.8 WSW 2 4 1 2 - - 0.0
27/06:10am 22.2 26.5 21.2 94 0.7 CALM 0 2 0 1 - - 0.0
27/06:00am 21.9 25.7 21.0 95 0.6 W 2 4 1 2 - - 0.0
27/05:50am 21.9 25.3 20.9 94 0.7 WNW 4 4 2 2 - - 0.0
27/05:40am 21.8 25.1 20.8 94 0.7 NNW 4 6 2 3 - - 0.0
27/05:30am 21.8 25.5 20.8 94 0.7 N 2 4 1 2 - - 0.0
27/05:20am 21.8 25.5 20.8 94 0.7 NNW 2 4 1 2 - - 0.0
27/05:10am 21.9 25.7 20.9 94 0.7 N 2 4 1 2 - - 0.0
27/05:00am 22.0 25.4 20.9 93 0.7 NW 4 6 2 3 - - 0.0
27/04:50am 22.1 25.5 20.9 93 0.8 NNW 4 6 2 3 - - 0.0
27/04:40am 22.2 26.0 20.9 92 0.9 SSE 2 4 1 2 - - 0.0
27/04:30am 22.3 25.7 20.9 92 0.9 SSE 4 6 2 3 - - 0.0
27/04:20am 22.4 25.5 21.0 92 0.9 SSE 6 6 3 3 - - 0.0
27/04:10am 22.4 25.8 21.0 92 0.9 S 4 6 2 3 - - 0.0
27/04:00am 22.3 25.7 21.0 92 0.9 S 4 6 2 3 - - 0.0
27/03:50am 22.2 25.7 21.1 93 0.7 SSE 4 4 2 2 - - 0.0
27/03:40am 22.1 25.2 21.0 93 0.7 SE 6 6 3 3 - - 0.0
27/03:30am 22.2 25.6 21.0 93 0.8 ESE 4 6 2 3 - - 0.0
27/03:20am 22.4 26.0 21.2 93 0.8 ESE 4 6 2 3 - - 0.0
27/03:10am 22.5 26.9 21.3 93 0.8 CALM 0 0 0 0 - - 0.0
27/03:00am 22.5 26.5 21.3 93 0.8 WNW 2 4 1 2 - - 0.0
27/02:50am 22.7 26.3 21.3 92 0.9 NNW 4 4 2 2 - - 0.0
27/02:40am 22.8 26.7 21.2 91 1.1 NNW 2 4 1 2 - - 0.0
27/02:30am 22.9 27.3 21.3 91 1.1 CALM 0 0 0 0 - - 0.0
27/02:20am 23.0 27.4 21.3 90 1.1 CALM 0 2 0 1 - - 0.0
27/02:10am 23.1 27.1 21.3 90 1.2 NNW 2 4 1 2 - - 0.0
27/02:00am 23.1 27.0 21.2 89 1.3 W 2 4 1 2 - - 0.0
27/01:50am 22.9 26.4 21.1 89 1.2 W 4 4 2 2 - - 0.0
27/01:40am 22.8 26.4 21.2 91 1.1 WSW 4 4 2 2 - - 0.0
27/01:30am 22.8 26.4 21.2 91 1.1 W 4 6 2 3 - - 0.0
27/01:20am 23.0 26.2 21.2 89 1.2 NW 6 6 3 3 - - 0.0
27/01:10am 23.2 26.4 21.2 88 1.3 NW 6 7 3 4 - - 0.0
27/01:00am 23.5 26.7 21.2 87 1.5 NW 6 7 3 4 - - 0.0
27/12:50am 23.8 27.4 21.2 85 1.7 NW 4 6 2 3 - - 0.0
27/12:40am 24.0 27.6 20.5 81 2.3 NE 2 4 1 2 - - 0.0
27/12:30am 24.0 27.1 20.3 80 2.4 E 4 6 2 3 - - 0.0
27/12:20am 23.7 27.4 20.7 83 2.0 NE 2 4 1 2 - - 0.0
27/12:10am 23.5 26.8 20.8 85 1.8 N 4 6 2 3 - - 0.0
27/12:00am 23.5 27.0 21.1 86 1.6 W 4 6 2 3 - - 0.0
 
Date/Time
EST
Temp
°C
App
Temp
°C
Dew
Point
°C
Rel
Hum
%
Delta-T
°C
Wind Press
QNH
hPa
Press
MSL
hPa
Rain since
9am
mm
Dir  Spd
km/h
Gust
km/h
Spd
kts
Gust
kts
26/11:50pm 23.6 26.8 21.3 87 1.5 WNW 6 7 3 4 - - 0.0
26/11:40pm 24.1 27.4 21.5 85 1.7 NW 6 7 3 4 - - 0.0
26/11:30pm 24.4 27.4 20.9 81 2.3 NNE 6 7 3 4 - - 0.0
26/11:20pm 24.4 27.4 20.9 81 2.3 NE 6 6 3 3 - - 0.0
26/11:10pm 24.6 27.6 20.8 79 2.5 NE 6 7 3 4 - - 0.0
26/11:00pm 25.0 28.1 21.0 78 2.6 ENE 6 7 3 4 - - 0.0
26/10:50pm 25.1 27.8 20.3 74 3.1 E 6 7 3 4 - - 0.0
26/10:40pm 25.1 27.7 20.1 74 3.3 E 6 7 3 4 - - 0.0
26/10:30pm 25.1 27.8 20.3 74 3.1 E 6 6 3 3 - - 0.0
26/10:20pm 25.2 27.9 20.2 74 3.3 E 6 7 3 4 - - 0.0
26/10:10pm 25.3 27.9 20.1 73 3.4 E 6 7 3 4 - - 0.0
26/10:00pm 25.2 27.3 20.1 73 3.3 ENE 9 15 5 8 - - 0.0
26/09:50pm 25.2 27.2 19.9 72 3.4 E 9 11 5 6 - - 0.0
26/09:40pm 25.2 27.9 20.2 74 3.3 ESE 6 7 3 4 - - 0.0
26/09:30pm 25.2 27.1 19.8 72 3.5 ENE 9 11 5 6 - - 0.0
26/09:20pm 25.3 27.9 20.1 73 3.4 ESE 6 11 3 6 - - 0.0
26/09:10pm 25.4 28.5 20.2 73 3.4 ENE 4 6 2 3 - - 0.0
26/09:00pm 25.4 27.9 19.8 71 3.6 ENE 6 9 3 5 - - 0.0
26/08:50pm 25.3 27.5 19.7 71 3.6 NNE 7 11 4 6 - - 0.0
26/08:40pm 25.4 27.6 19.6 70 3.8 E 7 11 4 6 - - 0.0
26/08:30pm 25.4 27.2 19.6 70 3.8 NNE 9 11 5 6 - - 0.0
26/08:20pm 25.4 27.3 19.8 71 3.6 NE 9 11 5 6 - - 0.0
26/08:10pm 25.4 27.7 19.8 71 3.6 NE 7 11 4 6 - - 0.0
26/08:00pm 25.6 28.0 20.0 71 3.7 E 7 11 4 6 - - 0.0
26/07:50pm 25.6 27.8 19.7 70 3.8 E 7 13 4 7 - - 0.0
26/07:40pm 25.6 27.8 19.7 70 3.8 E 7 9 4 5 - - 0.0
26/07:30pm 25.8 28.1 19.5 68 4.1 N 6 7 3 4 - - 0.0
26/07:20pm 25.8 28.4 19.3 67 4.2 NNE 4 7 2 4 - - 0.0
26/07:10pm 25.8 28.9 19.4 67 4.1 SE 2 6 1 3 - - 0.0
26/07:00pm 25.9 28.1 19.3 67 4.3 NE 6 9 3 5 - - 0.0
26/06:50pm 26.0 27.6 19.2 66 4.4 NE 9 13 5 7 - - 0.0
26/06:40pm 26.1 28.1 19.1 65 4.5 ENE 7 11 4 6 - - 0.0
26/06:30pm 26.3 27.9 19.1 64 4.6 ENE 9 13 5 7 - - 0.0
26/06:20pm 26.5 27.6 19.7 66 4.4 ENE 13 15 7 8 - - 0.0
26/06:10pm 27.0 28.9 20.6 68 4.2 ENE 11 13 6 7 - - 0.0
26/06:00pm 27.4 28.0 20.3 65 4.7 ENE 17 19 9 10 - - 0.0
26/05:50pm 27.7 28.4 19.7 61 5.2 ENE 15 20 8 11 - - 0.0
26/05:40pm 27.7 28.4 19.7 61 5.2 ENE 15 20 8 11 - - 0.0
26/05:30pm 27.9 27.9 19.7 61 5.4 NE 19 22 10 12 - - 0.0
26/05:20pm 28.1 27.9 19.7 60 5.5 ENE 20 24 11 13 - - 0.0
26/05:10pm 28.6 28.6 19.8 59 5.8 ENE 19 20 10 11 - - 0.0
26/05:00pm 28.6 28.5 20.0 59 5.7 ENE 20 26 11 14 - - 0.0
26/04:50pm 28.7 28.6 19.9 59 5.8 ENE 20 24 11 13 - - 0.0
26/04:40pm 28.5 28.7 20.6 62 5.2 NE 20 22 11 12 - - 0.0
26/04:30pm 29.1 29.3 20.5 59 5.7 NE 20 22 11 12 - - 0.0
26/04:20pm 29.4 29.2 20.5 58 5.9 NE 22 26 12 14 - - 0.0
26/04:10pm 29.6 29.7 20.4 57 6.1 NE 20 24 11 13 - - 0.0
26/04:00pm 29.3 29.7 20.7 59 5.7 NE 19 22 10 12 - - 0.0
26/03:50pm 29.4 29.4 20.2 57 6.1 NE 20 24 11 13 - - 0.0
26/03:40pm 29.7 30.0 20.3 57 6.2 NE 19 24 10 13 - - 0.0
26/03:30pm 29.5 29.2 20.3 57 6.1 ENE 22 24 12 13 - - 0.0
26/03:20pm 29.7 30.2 20.8 58 5.9 NE 19 24 10 13 - - 0.0
26/03:10pm 29.3 29.7 21.0 61 5.6 NE 20 24 11 13 - - 0.0
26/03:00pm 29.2 29.5 20.8 60 5.6 NE 20 24 11 13 - - 0.0
26/02:50pm 29.1 29.5 20.9 61 5.5 NNE 20 22 11 12 - - 0.0
26/02:40pm 29.6 29.7 21.2 60 5.6 NE 22 24 12 13 - - 0.0
26/02:30pm 30.0 30.7 21.2 59 5.9 NE 19 22 10 12 - - 0.0
26/02:20pm 30.2 31.5 21.7 60 5.8 NE 17 20 9 11 - - 0.0
26/02:10pm 30.3 30.4 19.9 53 6.9 NE 19 22 10 12 - - 0.0
26/02:00pm 30.1 30.3 20.1 55 6.6 NE 19 22 10 12 - - 0.0
26/01:50pm 30.0 30.5 20.8 57 6.1 NE 19 20 10 11 - - 0.0
26/01:40pm 29.9 29.9 19.7 54 6.7 NE 19 22 10 12 - - 0.0
26/01:30pm 30.5 30.7 19.3 51 7.3 NE 17 20 9 11 - - 0.0
26/01:20pm 30.2 30.1 19.6 53 7.0 NE 19 22 10 12 - - 0.0
26/01:10pm 30.1 30.3 20.6 56 6.3 NE 20 24 11 13 - - 0.0
26/01:00pm 30.9 31.1 20.1 52 7.2 NE 19 22 10 12 - - 0.0
26/12:50pm 30.6 30.8 20.6 55 6.7 ENE 20 22 11 12 - - 0.0
26/12:40pm 30.5 31.0 20.8 56 6.5 NE 19 22 10 12 - - 0.0
26/12:30pm 29.6 30.2 21.0 60 5.8 NE 19 22 10 12 - - 0.0
26/12:20pm 29.6 30.5 21.9 63 5.2 NE 20 24 11 13 - - 0.0
26/12:10pm 29.8 30.9 21.3 60 5.7 NNE 17 24 9 13 - - 0.0
26/12:00pm 30.4 31.3 20.1 54 6.8 NNE 15 17 8 9 - - 0.0
26/11:50am 29.6 32.3 20.2 57 6.2 NE 6 9 3 5 - - 0.0
26/11:40am 29.1 32.3 20.5 59 5.7 N 4 7 2 4 - - 0.0
26/11:30am 29.0 31.6 20.1 58 5.9 NNW 6 6 3 3 - - 0.0
26/11:20am 29.3 32.4 20.3 58 6.0 NNW 4 6 2 3 - - 0.0
26/11:10am 29.0 31.6 20.4 59 5.7 E 7 9 4 5 - - 0.0
26/11:00am 28.7 30.9 20.4 60 5.5 SSE 9 11 5 6 - - 0.0
26/10:50am 28.5 31.2 21.3 65 4.8 SSE 9 11 5 6 - - 0.0
26/10:40am 29.2 32.6 21.6 63 5.1 SE 6 9 3 5 - - 0.0
26/10:30am 29.2 31.6 20.1 58 6.0 E 7 11 4 6 - - 0.0
26/10:20am 29.0 31.5 20.2 59 5.8 ESE 7 11 4 6 - - 0.0
26/10:10am 28.8 30.6 20.4 60 5.6 SE 11 15 6 8 - - 0.0
26/10:00am 28.2 31.3 21.0 65 4.8 SE 6 9 3 5 - - 0.0
26/09:50am 27.5 30.0 21.0 67 4.3 S 9 13 5 7 - - 0.0
26/09:40am 26.8 29.7 21.7 73 3.4 S 9 13 5 7 - - 0.0
26/09:30am 25.6 27.8 20.5 73 3.4 SSE 9 11 5 6 - - 0.0
26/09:20am 25.5 27.5 20.8 75 3.1 SE 11 13 6 7 - - 0.0
26/09:10am 25.9 27.7 21.2 75 3.1 E 13 15 7 8 - - 0.0
26/09:00am 26.2 28.5 21.3 74 3.3 SSE 11 13 6 7 - - 26.6
26/08:50am 26.3 28.4 21.0 72 3.5 S 11 13 6 7 - - 26.6
26/08:40am 26.6 29.5 21.0 71 3.7 S 7 9 4 5 - - 26.6
26/08:30am 27.4 30.2 20.5 66 4.6 ESE 6 9 3 5 - - 26.6
26/08:20am 27.3 30.5 21.2 69 4.1 SE 6 7 3 4 - - 26.6
26/08:10am 26.9 30.0 21.0 70 3.9 S 6 7 3 4 - - 26.6
26/08:00am 26.5 29.6 21.0 72 3.7 SSW 6 7 3 4 - - 26.6
26/07:50am 25.9 29.0 21.1 75 3.2 S 6 6 3 3 - - 26.6
26/07:40am 25.4 28.8 20.9 76 3.0 S 4 6 2 3 - - 26.6
26/07:30am 25.5 29.4 21.2 77 2.9 S 2 4 1 2 - - 26.6
26/07:20am 25.5 28.9 20.9 75 3.0 SSE 4 6 2 3 - - 26.6
26/07:00am 25.3 29.1 21.0 77 2.8 SSW 2 4 1 2 - - 26.6
26/06:50am 25.1 28.5 21.0 78 2.7 SE 4 6 2 3 - - 26.6
26/06:40am 24.7 28.4 20.8 79 2.6 SSE 2 4 1 2 - - 26.6
26/06:30am 24.1 27.3 20.4 80 2.4 S 4 6 2 3 - - 26.6
26/06:20am 23.8 27.9 20.8 83 2.0 CALM 0 2 0 1 - - 26.6
26/06:10am 23.3 26.6 20.8 86 1.6 S 4 6 2 3 - - 26.6
26/06:00am 22.8 25.5 20.7 88 1.4 SSW 7 7 4 4 - - 26.6
26/05:50am 22.6 25.6 20.9 90 1.1 SW 6 6 3 3 - - 26.6
26/05:40am 22.5 25.5 20.8 90 1.1 SW 6 6 3 3 - - 26.6
26/05:30am 22.5 25.7 20.5 88 1.3 SW 4 6 2 3 - - 26.6
26/05:20am 22.6 26.7 20.8 89 1.2 CALM 0 4 0 2 - - 26.6
26/05:10am 22.6 25.8 20.6 88 1.3 ENE 4 6 2 3 - - 26.6
26/05:00am 22.9 26.2 20.8 88 1.4 SSE 4 4 2 2 - - 26.6
26/04:50am 23.1 26.7 21.3 90 1.2 SSW 4 6 2 3 - - 26.6
26/04:40am 23.4 27.5 21.5 89 1.3 NW 2 4 1 2 - - 26.6
26/04:30am 23.3 27.1 21.0 87 1.5 ENE 2 4 1 2 - - 26.6
26/04:20am 23.2 26.5 20.8 86 1.6 ESE 4 4 2 2 - - 26.6
26/04:10am 23.1 26.7 21.2 89 1.3 S 4 4 2 2 - - 26.6
26/04:00am 23.0 26.1 21.1 89 1.3 SSE 6 6 3 3 - - 26.6
26/03:50am 22.9 25.8 21.1 89 1.2 SE 7 9 4 5 - - 26.6
26/03:40am 22.8 26.4 21.2 91 1.1 SSE 4 6 2 3 - - 26.6
26/03:30am 22.7 26.3 21.2 91 1.0 S 4 6 2 3 - - 26.6
26/03:20am 22.7 26.3 21.3 92 0.9 SW 4 4 2 2 - - 26.6
26/03:10am 22.5 26.0 21.1 92 0.9 SSW 4 4 2 2 - - 26.6
26/03:00am 22.4 26.3 21.1 92 0.9 WSW 2 4 1 2 - - 26.6
26/02:50am 22.5 26.0 21.1 92 0.9 W 4 6 2 3 - - 26.6
26/02:40am 22.6 25.8 21.2 92 0.9 WNW 6 6 3 3 - - 26.6
26/02:30am 22.7 25.7 21.2 91 1.0 WNW 7 9 4 5 - - 26.6
26/02:20am 22.9 26.0 21.1 89 1.2 NW 6 6 3 3 - - 26.6
26/02:10am 23.4 26.7 20.8 85 1.7 NW 4 6 2 3 - - 26.6
26/02:00am 23.5 26.8 20.7 84 1.8 NW 4 6 2 3 - - 26.6
26/01:50am 23.6 26.8 20.5 83 2.0 N 4 6 2 3 - - 26.6
26/01:40am 23.9 26.8 20.7 82 2.1 NNW 6 7 3 4 - - 26.6
26/01:30am 24.1 27.3 20.6 81 2.3 N 4 6 2 3 - - 26.6
26/01:20am 24.2 27.3 20.3 79 2.5 ENE 4 6 2 3 - - 26.6
26/01:10am 24.1 27.1 20.0 78 2.7 SSE 4 6 2 3 - - 26.6
26/01:00am 23.9 26.8 19.9 78 2.6 S 4 7 2 4 - - 26.6
26/12:50am 23.7 26.8 20.3 81 2.2 SE 4 6 2 3 - - 26.6
26/12:40am 23.7 26.3 20.1 80 2.3 SE 6 6 3 3 - - 26.6
26/12:30am 23.6 26.7 20.3 82 2.2 SE 4 6 2 3 - - 26.6
26/12:20am 23.6 26.9 20.7 84 1.9 SSE 4 7 2 4 - - 26.6
26/12:10am 23.7 27.5 21.0 85 1.8 S 2 4 1 2 - - 26.6

Other formats

Comma delimited format used in spreadsheet applications
http://www.bom.gov.au/fwo/IDQ60801/IDQ60801.99084.axf

JavaScript Object Notation format (JSON) in row-major order
http://www.bom.gov.au/fwo/IDQ60801/IDQ60801.99084.json

Data quality

Most of these data are generated automatically and are frequently updated. Quality checks on data are not normally performed. It is possible for incorrect values to appear. Refer to information at About Latest Weather Observations and please check the disclaimer before using these data.